createdAt,value
2018-12-27T00:00:42.896Z,1001.74
2018-12-27T00:01:42.867Z,1001.73
2018-12-27T00:02:42.858Z,1001.73
2018-12-27T00:03:42.847Z,1001.71
2018-12-27T00:04:42.856Z,1001.68
2018-12-27T00:05:42.820Z,1001.72
2018-12-27T00:06:42.832Z,1001.73
2018-12-27T00:07:42.800Z,1001.67
2018-12-27T00:08:42.789Z,1001.67
2018-12-27T00:09:42.802Z,1001.64
2018-12-27T00:10:42.767Z,1001.62
2018-12-27T00:11:42.757Z,1001.64
2018-12-27T00:12:42.756Z,1001.63
2018-12-27T00:13:42.735Z,1001.69
2018-12-27T00:14:42.748Z,1001.68
2018-12-27T00:15:42.713Z,1001.64
2018-12-27T00:16:42.702Z,1001.64
2018-12-27T00:17:42.691Z,1001.56
2018-12-27T00:18:42.699Z,1001.60
2018-12-27T00:19:42.693Z,1001.57
2018-12-27T00:20:42.657Z,1001.57
2018-12-27T00:21:42.647Z,1001.55
2018-12-27T00:22:42.640Z,1001.54
2018-12-27T00:23:42.650Z,1001.53
2018-12-27T00:24:42.703Z,1001.47
2018-12-27T00:25:42.612Z,1001.49
2018-12-27T00:26:42.617Z,1001.49
2018-12-27T00:27:42.581Z,1001.51
2018-12-27T00:28:42.572Z,1001.53
2018-12-27T00:29:42.588Z,1001.49
2018-12-27T00:30:42.572Z,1001.49
2018-12-27T00:31:42.591Z,1001.55
2018-12-27T00:32:42.544Z,1001.50
2018-12-27T00:33:42.517Z,1001.52
2018-12-27T00:34:42.531Z,1001.44
2018-12-27T00:35:42.494Z,1001.49
2018-12-27T00:36:42.483Z,1001.49
2018-12-27T00:37:42.496Z,1001.46
2018-12-27T00:38:42.462Z,1001.47
2018-12-27T00:39:42.474Z,1001.45
2018-12-27T00:40:42.438Z,1001.48
2018-12-27T00:41:42.429Z,1001.51
2018-12-27T00:42:42.418Z,1001.47
2018-12-27T00:43:42.424Z,1001.48
2018-12-27T00:44:42.436Z,1001.51
2018-12-27T00:45:42.393Z,1001.49
2018-12-27T00:46:42.375Z,1001.54
2018-12-27T00:47:42.364Z,1001.49
2018-12-27T00:48:42.352Z,1001.48
2018-12-27T00:49:42.373Z,1001.48
2018-12-27T00:50:42.356Z,1001.49
2018-12-27T00:51:42.324Z,1001.49
2018-12-27T00:52:42.323Z,1001.46
2018-12-27T00:53:42.308Z,1001.47
2018-12-27T00:54:42.288Z,1001.49
2018-12-27T00:55:42.333Z,1001.53
2018-12-27T00:56:42.270Z,1001.55
2018-12-27T00:57:42.255Z,1001.50
2018-12-27T00:58:42.250Z,1001.48
2018-12-27T00:59:42.236Z,1001.49
2018-12-27T01:00:42.256Z,1001.46
2018-12-27T01:01:42.228Z,1001.46
2018-12-27T01:02:42.205Z,1001.44
2018-12-27T01:03:42.190Z,1001.37
2018-12-27T01:04:42.184Z,1001.40
2018-12-27T01:05:42.196Z,1001.38
2018-12-27T01:06:42.158Z,1001.41
2018-12-27T01:07:42.172Z,1001.41
2018-12-27T01:08:42.136Z,1001.39
2018-12-27T01:09:42.128Z,1001.47
2018-12-27T01:10:42.149Z,1001.42
2018-12-27T01:11:42.104Z,1001.42
2018-12-27T01:12:42.093Z,1001.46
2018-12-27T01:13:42.098Z,1001.44
2018-12-27T01:14:42.071Z,1001.46
2018-12-27T01:15:42.088Z,1001.46
2018-12-27T01:16:42.048Z,1001.45
2018-12-27T01:17:42.048Z,1001.45
2018-12-27T01:18:42.037Z,1001.45
2018-12-27T01:19:42.065Z,1001.46
2018-12-27T01:20:42.045Z,1001.46
2018-12-27T01:21:41.995Z,1001.42
2018-12-27T01:22:41.985Z,1001.45
2018-12-27T01:23:41.982Z,1001.46
2018-12-27T01:24:41.962Z,1001.42
2018-12-27T01:25:41.994Z,1001.38
2018-12-27T01:26:41.970Z,1001.42
2018-12-27T01:27:41.930Z,1001.38
2018-12-27T01:28:41.918Z,1001.33
2018-12-27T01:29:41.907Z,1001.37
2018-12-27T01:30:41.901Z,1001.37
2018-12-27T01:31:42.012Z,1001.36
2018-12-27T01:32:41.875Z,1001.37
2018-12-27T01:33:41.864Z,1001.32
2018-12-27T01:34:41.861Z,1001.41
2018-12-27T01:35:41.845Z,1001.36
2018-12-27T01:36:41.858Z,1001.38
2018-12-27T01:37:41.834Z,1001.38
2018-12-27T01:38:41.810Z,1001.34
2018-12-27T01:39:41.803Z,1001.31
2018-12-27T01:40:41.788Z,1001.27
2018-12-27T01:41:41.800Z,1001.32
2018-12-27T01:42:41.769Z,1001.30
2018-12-27T01:43:41.767Z,1001.28
2018-12-27T01:44:41.744Z,1001.26
2018-12-27T01:45:41.733Z,1001.24
2018-12-27T01:46:41.751Z,1001.24
2018-12-27T01:47:41.713Z,1001.24
2018-12-27T01:48:41.708Z,1001.21
2018-12-27T01:49:41.690Z,1001.27
2018-12-27T01:50:41.701Z,1001.26
2018-12-27T01:51:41.668Z,1001.23
2018-12-27T01:52:41.682Z,1001.27
2018-12-27T01:53:41.650Z,1001.24
2018-12-27T01:54:41.637Z,1001.18
2018-12-27T01:55:41.625Z,1001.18
2018-12-27T01:56:41.641Z,1001.17
2018-12-27T01:57:41.634Z,1001.17
2018-12-27T01:58:41.594Z,1001.19
2018-12-27T01:59:41.582Z,1001.23
2018-12-27T02:00:41.572Z,1001.21
2018-12-27T02:01:41.563Z,1001.18
2018-12-27T02:02:41.572Z,1001.16
2018-12-27T02:03:41.562Z,1001.14
2018-12-27T02:04:41.528Z,1001.14
2018-12-27T02:05:41.518Z,1001.14
2018-12-27T02:06:41.506Z,1001.12
2018-12-27T02:07:41.519Z,1001.11
2018-12-27T02:08:41.483Z,1001.11
2018-12-27T02:09:41.491Z,1001.10
2018-12-27T02:10:41.473Z,1001.07
2018-12-27T02:11:41.452Z,1001.04
2018-12-27T02:12:41.466Z,1001.02
2018-12-27T02:13:41.432Z,1001.02
2018-12-27T02:14:41.419Z,1000.99
2018-12-27T02:15:41.411Z,1001.03
2018-12-27T02:16:41.415Z,1000.98
2018-12-27T02:17:41.410Z,1001.02
2018-12-27T02:18:41.392Z,1000.96
2018-12-27T02:19:41.364Z,1000.94
2018-12-27T02:20:41.356Z,1000.92
2018-12-27T02:21:41.344Z,1000.94
2018-12-27T02:22:41.400Z,1000.96
2018-12-27T02:23:41.322Z,1000.96
2018-12-27T02:24:41.312Z,1000.94
2018-12-27T02:25:41.299Z,1000.98
2018-12-27T02:26:41.292Z,1000.95
2018-12-27T02:27:41.278Z,1000.93
2018-12-27T02:28:41.321Z,1000.92
2018-12-27T02:29:41.254Z,1000.90
2018-12-27T02:30:41.252Z,1000.93
2018-12-27T02:31:41.234Z,1000.92
2018-12-27T02:32:41.223Z,1000.90
2018-12-27T02:33:41.236Z,1000.95
2018-12-27T02:34:41.200Z,1000.97
2018-12-27T02:35:41.200Z,1000.91
2018-12-27T02:36:41.180Z,1000.93
2018-12-27T02:37:41.167Z,1000.94
2018-12-27T02:38:41.183Z,1000.90
2018-12-27T02:39:41.147Z,1000.92
2018-12-27T02:40:41.138Z,1000.94
2018-12-27T02:41:41.170Z,1000.93
2018-12-27T02:42:41.118Z,1000.91
2018-12-27T02:43:41.128Z,1000.89
2018-12-27T02:44:41.091Z,1000.89
2018-12-27T02:45:41.099Z,1000.84
2018-12-27T02:46:41.073Z,1000.80
2018-12-27T02:47:41.083Z,1000.82
2018-12-27T02:48:41.072Z,1000.78
2018-12-27T02:49:41.042Z,1000.80
2018-12-27T02:50:41.027Z,1000.82
2018-12-27T02:51:41.019Z,1000.77
2018-12-27T02:52:41.008Z,1000.78
2018-12-27T02:53:41.056Z,1000.81
2018-12-27T02:54:40.983Z,1000.77
2018-12-27T02:55:40.976Z,1000.79
2018-12-27T02:56:40.968Z,1000.77
2018-12-27T02:57:40.965Z,1000.81
2018-12-27T02:58:40.961Z,1000.79
2018-12-27T02:59:41.021Z,1000.88
2018-12-27T03:00:40.919Z,1000.84
2018-12-27T03:01:40.909Z,1000.81
2018-12-27T03:02:40.903Z,1000.76
2018-12-27T03:03:44.072Z,1000.76
2018-12-27T03:04:40.899Z,1000.77
2018-12-27T03:05:40.882Z,1000.75
2018-12-27T03:06:40.854Z,1000.75
2018-12-27T03:07:40.845Z,1000.73
2018-12-27T03:08:40.844Z,1000.71
2018-12-27T03:09:40.847Z,1000.69
2018-12-27T03:10:40.819Z,1000.75
2018-12-27T03:11:40.838Z,1000.69
2018-12-27T03:12:40.789Z,1000.70
2018-12-27T03:13:40.807Z,1000.64
2018-12-27T03:14:40.797Z,1000.65
2018-12-27T03:15:40.757Z,1000.66
2018-12-27T03:16:40.747Z,1000.63
2018-12-27T03:17:40.735Z,1000.65
2018-12-27T03:18:40.743Z,1000.63
2018-12-27T03:19:40.741Z,1000.62
2018-12-27T03:20:40.711Z,1000.62
2018-12-27T03:21:40.700Z,1000.62
2018-12-27T03:22:40.682Z,1000.56
2018-12-27T03:23:40.667Z,1000.56
2018-12-27T03:24:40.694Z,1000.57
2018-12-27T03:25:40.651Z,1000.64
2018-12-27T03:26:40.648Z,1000.62
2018-12-27T03:27:40.628Z,1000.62
2018-12-27T03:28:40.617Z,1000.59
2018-12-27T03:29:40.638Z,1000.57
2018-12-27T03:30:40.594Z,1000.61
2018-12-27T03:31:40.586Z,1000.58
2018-12-27T03:32:40.590Z,1000.54
2018-12-27T03:33:40.558Z,1000.51
2018-12-27T03:34:40.574Z,1000.47
2018-12-27T03:35:40.542Z,1000.51
2018-12-27T03:36:40.528Z,1000.50
2018-12-27T03:37:40.516Z,1000.45
2018-12-27T03:38:40.519Z,1000.48
2018-12-27T03:39:40.520Z,1000.43
2018-12-27T03:40:40.483Z,1000.44
2018-12-27T03:41:40.475Z,1000.41
2018-12-27T03:42:40.466Z,1000.37
2018-12-27T03:43:40.453Z,1000.43
2018-12-27T03:44:40.439Z,1000.37
2018-12-27T03:45:40.478Z,1000.37
2018-12-27T03:46:40.419Z,1000.37
2018-12-27T03:47:40.411Z,1000.36
2018-12-27T03:48:40.395Z,1000.37
2018-12-27T03:49:40.386Z,1000.34
2018-12-27T03:50:40.413Z,1000.36
2018-12-27T03:51:40.387Z,1000.34
2018-12-27T03:52:40.355Z,1000.33
2018-12-27T03:53:40.346Z,1000.30
2018-12-27T03:54:40.344Z,1000.32
2018-12-27T03:55:40.346Z,1000.29
2018-12-27T03:56:40.310Z,1000.27
2018-12-27T03:57:40.298Z,1000.26
2018-12-27T03:58:40.301Z,1000.25
2018-12-27T03:59:40.279Z,1000.29
2018-12-27T04:00:40.291Z,1000.27
2018-12-27T04:01:40.258Z,1000.24
2018-12-27T04:02:40.256Z,1000.25
2018-12-27T04:03:40.233Z,1000.24
2018-12-27T04:04:40.252Z,1000.18
2018-12-27T04:05:40.241Z,1000.17
2018-12-27T04:06:40.207Z,1000.19
2018-12-27T04:07:40.190Z,1000.13
2018-12-27T04:08:40.179Z,1000.14
2018-12-27T04:09:40.168Z,1000.15
2018-12-27T04:10:40.208Z,1000.14
2018-12-27T04:11:40.149Z,1000.12
2018-12-27T04:12:40.136Z,1000.12
2018-12-27T04:13:40.129Z,1000.09
2018-12-27T04:14:40.114Z,1000.11
2018-12-27T04:15:40.127Z,1000.13
2018-12-27T04:16:40.108Z,1000.14
2018-12-27T04:17:40.081Z,1000.13
2018-12-27T04:18:40.072Z,1000.10
2018-12-27T04:19:40.060Z,1000.08
2018-12-27T04:20:40.080Z,1000.13
2018-12-27T04:21:40.037Z,1000.06
2018-12-27T04:22:40.036Z,1000.09
2018-12-27T04:23:40.018Z,1000.06
2018-12-27T04:24:40.006Z,1000.05
2018-12-27T04:25:40.017Z,1000.09
2018-12-27T04:26:39.985Z,1000.05
2018-12-27T04:27:39.973Z,1000.09
2018-12-27T04:28:39.971Z,1000.06
2018-12-27T04:29:39.948Z,1000.07
2018-12-27T04:30:39.971Z,1000.13
2018-12-27T04:31:39.942Z,1000.11
2018-12-27T04:32:39.928Z,1000.09
2018-12-27T04:33:39.903Z,1000.07
2018-12-27T04:34:39.907Z,1000.09
2018-12-27T04:35:39.887Z,1000.06
2018-12-27T04:36:39.900Z,1000.10
2018-12-27T04:37:39.870Z,1000.10
2018-12-27T04:38:39.848Z,1000.12
2018-12-27T04:39:39.836Z,1000.13
2018-12-27T04:40:39.825Z,1000.11
2018-12-27T04:41:39.869Z,1000.11
2018-12-27T04:42:39.815Z,1000.14
2018-12-27T04:43:39.813Z,1000.11
2018-12-27T04:44:39.800Z,1000.13
2018-12-27T04:45:39.797Z,1000.08
2018-12-27T04:46:39.784Z,1000.07
2018-12-27T04:47:39.770Z,1000.04
2018-12-27T04:48:39.782Z,1000.06
2018-12-27T04:49:39.727Z,1000.03
2018-12-27T04:50:39.715Z,1000.09
2018-12-27T04:51:39.724Z,1000.09
2018-12-27T04:52:39.695Z,1000.08
2018-12-27T04:53:39.680Z,1000.05
2018-12-27T04:54:39.707Z,1000.09
2018-12-27T04:55:39.658Z,1000.05
2018-12-27T04:56:39.669Z,1000.07
2018-12-27T04:57:39.639Z,1000.06
2018-12-27T04:58:39.623Z,1000.03
2018-12-27T04:59:39.614Z,1000.05
2018-12-27T05:00:39.630Z,1000.04
2018-12-27T05:01:39.618Z,1000.01
2018-12-27T05:02:39.579Z,999.99
2018-12-27T05:03:39.569Z,1000.01
2018-12-27T05:04:39.558Z,1000.00
2018-12-27T05:05:39.547Z,999.97
2018-12-27T05:06:39.582Z,999.99
2018-12-27T05:07:39.523Z,999.97
2018-12-27T05:08:39.516Z,999.98
2018-12-27T05:09:39.503Z,1000.02
2018-12-27T05:10:39.492Z,1000.02
2018-12-27T05:11:39.503Z,1000.02
2018-12-27T05:12:39.485Z,1000.01
2018-12-27T05:13:39.458Z,1000.01
2018-12-27T05:14:39.450Z,1000.01
2018-12-27T05:15:39.442Z,999.98
2018-12-27T05:16:39.451Z,999.97
2018-12-27T05:17:39.416Z,1000.02
2018-12-27T05:18:39.425Z,1000.03
2018-12-27T05:19:39.395Z,1000.04
2018-12-27T05:20:39.383Z,1000.00
2018-12-27T05:21:39.396Z,1000.00
2018-12-27T05:22:39.362Z,1000.00
2018-12-27T05:23:39.351Z,1000.02
2018-12-27T05:24:39.359Z,1000.02
2018-12-27T05:25:39.330Z,1000.01
2018-12-27T05:26:39.355Z,1000.03
2018-12-27T05:27:39.307Z,1000.02
2018-12-27T05:28:39.295Z,1000.02
2018-12-27T05:29:39.285Z,999.98
2018-12-27T05:30:39.291Z,1000.01
2018-12-27T05:31:39.263Z,1000.04
2018-12-27T05:32:39.277Z,1000.03
2018-12-27T05:33:39.240Z,999.99
2018-12-27T05:34:39.229Z,1000.00
2018-12-27T05:35:39.219Z,1000.05
2018-12-27T05:36:39.231Z,1000.01
2018-12-27T05:37:39.222Z,1000.01
2018-12-27T05:38:39.186Z,999.97
2018-12-27T05:39:39.175Z,999.99
2018-12-27T05:40:39.166Z,1000.00
2018-12-27T05:41:39.155Z,1000.00
2018-12-27T05:42:39.217Z,999.96
2018-12-27T05:43:39.138Z,1000.00
2018-12-27T05:44:39.124Z,999.98
2018-12-27T05:45:39.111Z,999.98
2018-12-27T05:46:39.101Z,999.94
2018-12-27T05:47:39.116Z,999.96
2018-12-27T05:48:39.109Z,999.92
2018-12-27T05:49:39.073Z,999.96
2018-12-27T05:50:39.057Z,999.95
2018-12-27T05:51:39.048Z,999.91
2018-12-27T05:52:39.059Z,999.88
2018-12-27T05:53:39.028Z,999.88
2018-12-27T05:54:39.037Z,999.89
2018-12-27T05:55:39.005Z,999.92
2018-12-27T05:56:38.997Z,999.89
2018-12-27T05:57:39.016Z,999.91
2018-12-27T05:58:38.973Z,999.91
2018-12-27T05:59:38.967Z,999.90
2018-12-27T06:00:38.965Z,999.88
2018-12-27T06:01:38.944Z,999.93
2018-12-27T06:02:38.959Z,999.93
2018-12-27T06:03:38.919Z,999.90
2018-12-27T06:04:38.910Z,999.94
2018-12-27T06:05:38.900Z,999.96
2018-12-27T06:06:38.897Z,999.93
2018-12-27T06:07:38.902Z,999.96
2018-12-27T06:08:38.866Z,1000.02
2018-12-27T06:09:38.858Z,999.96
2018-12-27T06:10:38.846Z,999.99
2018-12-27T06:11:38.839Z,1000.08
2018-12-27T06:12:38.862Z,1000.04
2018-12-27T06:13:38.814Z,1000.09
2018-12-27T06:14:38.801Z,1000.04
2018-12-27T06:15:38.790Z,1000.06
2018-12-27T06:16:38.784Z,1000.09
2018-12-27T06:17:38.796Z,1000.06
2018-12-27T06:18:38.783Z,1000.07
2018-12-27T06:19:38.749Z,1000.12
2018-12-27T06:20:38.739Z,1000.08
2018-12-27T06:21:38.729Z,1000.13
2018-12-27T06:22:38.748Z,1000.07
2018-12-27T06:23:38.706Z,1000.13
2018-12-27T06:24:38.711Z,1000.18
2018-12-27T06:25:38.685Z,1000.17
2018-12-27T06:26:38.673Z,1000.18
2018-12-27T06:27:38.662Z,1000.18
2018-12-27T06:28:38.676Z,1000.22
2018-12-27T06:29:38.659Z,1000.25
2018-12-27T06:30:38.679Z,1000.23
2018-12-27T06:31:38.620Z,1000.24
2018-12-27T06:32:38.610Z,1000.22
2018-12-27T06:33:38.622Z,1000.21
2018-12-27T06:34:41.550Z,1000.20
2018-12-27T06:35:38.578Z,1000.20
2018-12-27T06:36:38.619Z,1000.17
2018-12-27T06:37:38.556Z,1000.18
2018-12-27T06:38:38.569Z,1000.18
2018-12-27T06:39:38.535Z,1000.12
2018-12-27T06:40:38.525Z,1000.15
2018-12-27T06:41:38.513Z,1000.18
2018-12-27T06:42:38.529Z,1000.19
2018-12-27T06:43:38.516Z,1000.20
2018-12-27T06:44:38.480Z,1000.20
2018-12-27T06:45:38.471Z,1000.16
2018-12-27T06:46:38.460Z,1000.17
2018-12-27T06:47:38.448Z,1000.19
2018-12-27T06:48:38.477Z,1000.19
2018-12-27T06:49:38.432Z,1000.13
2018-12-27T06:50:38.421Z,1000.18
2018-12-27T06:51:38.405Z,1000.14
2018-12-27T06:52:38.393Z,1000.13
2018-12-27T06:53:38.407Z,1000.17
2018-12-27T06:54:38.387Z,1000.20
2018-12-27T06:55:38.368Z,1000.13
2018-12-27T06:56:38.354Z,1000.12
2018-12-27T06:57:38.341Z,1000.12
2018-12-27T06:58:38.369Z,1000.11
2018-12-27T06:59:38.319Z,1000.13
2018-12-27T07:00:38.322Z,1000.15
2018-12-27T07:01:38.301Z,1000.10
2018-12-27T07:02:38.287Z,1000.18
2018-12-27T07:03:38.300Z,1000.16
2018-12-27T07:04:38.264Z,1000.16
2018-12-27T07:05:38.254Z,1000.20
2018-12-27T07:06:38.268Z,1000.18
2018-12-27T07:07:38.233Z,1000.14
2018-12-27T07:08:38.246Z,1000.17
2018-12-27T07:09:38.211Z,1000.19
2018-12-27T07:10:38.203Z,1000.18
2018-12-27T07:11:38.191Z,1000.18
2018-12-27T07:12:38.180Z,1000.19
2018-12-27T07:13:38.216Z,1000.16
2018-12-27T07:14:38.159Z,1000.12
2018-12-27T07:15:38.182Z,1000.11
2018-12-27T07:16:38.136Z,1000.14
2018-12-27T07:17:38.125Z,1000.13
2018-12-27T07:18:38.135Z,1000.09
2018-12-27T07:19:38.115Z,1000.09
2018-12-27T07:20:38.106Z,1000.13
2018-12-27T07:21:38.091Z,1000.19
2018-12-27T07:22:38.072Z,1000.19
2018-12-27T07:23:38.086Z,1000.18
2018-12-27T07:24:38.048Z,1000.21
2018-12-27T07:25:38.060Z,1000.19
2018-12-27T07:26:38.028Z,1000.19
2018-12-27T07:27:38.016Z,1000.22
2018-12-27T07:28:38.049Z,1000.22
2018-12-27T07:29:37.995Z,1000.19
2018-12-27T07:30:37.986Z,1000.19
2018-12-27T07:31:37.991Z,1000.17
2018-12-27T07:32:37.973Z,1000.19
2018-12-27T07:33:37.976Z,1000.19
2018-12-27T07:34:37.942Z,1000.15
2018-12-27T07:35:37.931Z,1000.16
2018-12-27T07:36:37.924Z,1000.20
2018-12-27T07:37:37.928Z,1000.18
2018-12-27T07:38:37.922Z,1000.21
2018-12-27T07:39:37.894Z,1000.22
2018-12-27T07:40:37.881Z,1000.19
2018-12-27T07:41:37.868Z,1000.20
2018-12-27T07:42:37.856Z,1000.18
2018-12-27T07:43:37.901Z,1000.18
2018-12-27T07:44:37.837Z,1000.20
2018-12-27T07:45:37.826Z,1000.23
2018-12-27T07:46:37.813Z,1000.24
2018-12-27T07:47:37.803Z,1000.22
2018-12-27T07:48:37.827Z,1000.27
2018-12-27T07:49:37.800Z,1000.27
2018-12-27T07:50:37.786Z,1000.25
2018-12-27T07:51:37.760Z,1000.29
2018-12-27T07:52:37.751Z,1000.28
2018-12-27T07:53:37.767Z,1000.31
2018-12-27T07:54:37.733Z,1000.31
2018-12-27T07:55:37.719Z,1000.26
2018-12-27T07:56:37.712Z,1000.24
2018-12-27T07:57:37.717Z,1000.25
2018-12-27T07:58:37.709Z,1000.25
2018-12-27T07:59:37.674Z,1000.27
2018-12-27T08:00:37.661Z,1000.23
2018-12-27T08:01:37.651Z,1000.25
2018-12-27T08:02:37.641Z,1000.28
2018-12-27T08:03:37.694Z,1000.15
2018-12-27T08:04:37.623Z,1000.20
2018-12-27T08:05:37.611Z,1000.21
2018-12-27T08:06:37.594Z,1000.20
2018-12-27T08:07:37.584Z,1000.18
2018-12-27T08:08:37.572Z,1000.16
2018-12-27T08:09:37.612Z,1000.17
2018-12-27T08:10:37.550Z,1000.18
2018-12-27T08:11:37.542Z,1000.19
2018-12-27T08:12:37.537Z,1000.13
2018-12-27T08:13:37.521Z,1000.18
2018-12-27T08:14:37.530Z,1000.16
2018-12-27T08:15:37.498Z,1000.19
2018-12-27T08:16:37.492Z,1000.10
2018-12-27T08:17:37.473Z,1000.11
2018-12-27T08:18:37.464Z,1000.06
2018-12-27T08:19:37.476Z,1000.09
2018-12-27T08:20:37.440Z,1000.11
2018-12-27T08:21:37.429Z,1000.09
2018-12-27T08:22:37.448Z,1000.08
2018-12-27T08:23:37.410Z,1000.12
2018-12-27T08:24:37.444Z,1000.17
2018-12-27T08:25:37.386Z,1000.08
2018-12-27T08:26:37.379Z,1000.12
2018-12-27T08:27:37.366Z,1000.07
2018-12-27T08:28:37.373Z,1000.06
2018-12-27T08:29:37.373Z,1000.02
2018-12-27T08:30:37.382Z,999.99
2018-12-27T08:31:37.326Z,1000.00
2018-12-27T08:32:37.319Z,999.97
2018-12-27T08:33:37.314Z,999.99
2018-12-27T08:34:37.287Z,999.99
2018-12-27T08:35:37.308Z,999.94
2018-12-27T08:36:37.270Z,999.94
2018-12-27T08:37:37.253Z,999.93
2018-12-27T08:38:37.285Z,999.97
2018-12-27T08:39:37.231Z,999.95
2018-12-27T08:40:37.246Z,999.93
2018-12-27T08:41:37.207Z,999.91
2018-12-27T08:42:37.200Z,999.87
2018-12-27T08:43:37.183Z,999.91
2018-12-27T08:44:37.201Z,999.89
2018-12-27T08:45:37.186Z,999.83
2018-12-27T08:46:37.156Z,999.86
2018-12-27T08:47:37.142Z,999.85
2018-12-27T08:48:37.146Z,999.84
2018-12-27T08:49:37.118Z,999.79
2018-12-27T08:50:37.145Z,999.84
2018-12-27T08:51:37.132Z,999.82
2018-12-27T08:52:37.085Z,999.79
2018-12-27T08:53:37.082Z,999.83
2018-12-27T08:54:37.062Z,999.86
2018-12-27T08:55:37.072Z,999.83
2018-12-27T08:56:37.046Z,999.85
2018-12-27T08:57:37.027Z,999.82
2018-12-27T08:58:37.016Z,999.82
2018-12-27T08:59:37.020Z,999.77
2018-12-27T09:00:37.021Z,999.79
2018-12-27T09:01:36.984Z,999.77
2018-12-27T09:02:36.987Z,999.79
2018-12-27T09:03:36.961Z,999.75
2018-12-27T09:04:36.951Z,999.77
2018-12-27T09:05:36.964Z,999.78
2018-12-27T09:06:36.927Z,999.79
2018-12-27T09:07:36.924Z,999.78
2018-12-27T09:08:36.905Z,999.78
2018-12-27T09:09:36.912Z,999.72
2018-12-27T09:10:36.920Z,999.75
2018-12-27T09:11:36.873Z,999.76
2018-12-27T09:12:36.866Z,999.76
2018-12-27T09:13:36.853Z,999.74
2018-12-27T09:14:36.838Z,999.79
2018-12-27T09:15:36.852Z,999.78
2018-12-27T09:16:36.839Z,999.75
2018-12-27T09:17:36.812Z,999.73
2018-12-27T09:18:36.797Z,999.72
2018-12-27T09:19:36.804Z,999.73
2018-12-27T09:20:36.772Z,999.67
2018-12-27T09:21:36.788Z,999.69
2018-12-27T09:22:36.747Z,999.70
2018-12-27T09:23:36.738Z,999.71
2018-12-27T09:24:36.754Z,999.70
2018-12-27T09:25:36.715Z,999.73
2018-12-27T09:26:36.726Z,999.73
2018-12-27T09:27:36.703Z,999.70
2018-12-27T09:28:36.692Z,999.70
2018-12-27T09:29:36.669Z,999.67
2018-12-27T09:30:36.658Z,999.68
2018-12-27T09:31:36.680Z,999.67
2018-12-27T09:32:36.639Z,999.68
2018-12-27T09:33:36.642Z,999.63
2018-12-27T09:34:36.612Z,999.67
2018-12-27T09:35:36.604Z,999.60
2018-12-27T09:36:36.593Z,999.63
2018-12-27T09:37:36.603Z,999.56
2018-12-27T09:38:36.568Z,999.60
2018-12-27T09:39:36.592Z,999.57
2018-12-27T09:40:36.547Z,999.54
2018-12-27T09:41:36.539Z,999.51
2018-12-27T09:42:36.548Z,999.52
2018-12-27T09:43:36.513Z,999.51
2018-12-27T09:44:36.502Z,999.58
2018-12-27T09:45:36.495Z,999.53
2018-12-27T09:46:36.482Z,999.54
2018-12-27T09:47:36.499Z,999.55
2018-12-27T09:48:36.461Z,999.48
2018-12-27T09:49:36.445Z,999.51
2018-12-27T09:50:36.439Z,999.58
2018-12-27T09:51:36.439Z,999.49
2018-12-27T09:52:36.441Z,999.50
2018-12-27T09:53:36.402Z,999.47
2018-12-27T09:54:36.394Z,999.43
2018-12-27T09:55:36.382Z,999.46
2018-12-27T09:56:36.367Z,999.46
2018-12-27T09:57:36.401Z,999.45
2018-12-27T09:58:36.351Z,999.44
2018-12-27T09:59:36.335Z,999.42
2018-12-27T10:00:36.323Z,999.42
2018-12-27T10:01:36.312Z,999.44
2018-12-27T10:02:36.326Z,999.43
2018-12-27T10:03:36.305Z,999.39
2018-12-27T10:04:36.277Z,999.41
2018-12-27T10:05:36.287Z,999.44
2018-12-27T10:06:36.255Z,999.36
2018-12-27T10:07:36.276Z,999.40
2018-12-27T10:08:36.233Z,999.41
2018-12-27T10:09:36.233Z,999.43
2018-12-27T10:10:36.210Z,999.41
2018-12-27T10:11:36.205Z,999.39
2018-12-27T10:12:36.187Z,999.42
2018-12-27T10:13:36.203Z,999.43
2018-12-27T10:14:36.169Z,999.41
2018-12-27T10:15:36.173Z,999.40
2018-12-27T10:16:36.148Z,999.40
2018-12-27T10:17:36.135Z,999.35
2018-12-27T10:18:36.152Z,999.38
2018-12-27T10:19:36.111Z,999.33
2018-12-27T10:20:36.113Z,999.37
2018-12-27T10:21:36.120Z,999.31
2018-12-27T10:22:36.083Z,999.28
2018-12-27T10:23:36.092Z,999.28
2018-12-27T10:24:36.074Z,999.26
2018-12-27T10:25:36.047Z,999.24
2018-12-27T10:26:36.051Z,999.23
2018-12-27T10:27:36.037Z,999.23
2018-12-27T10:28:36.039Z,999.28
2018-12-27T10:29:36.003Z,999.25
2018-12-27T10:30:35.992Z,999.23
2018-12-27T10:31:35.984Z,999.23
2018-12-27T10:32:35.977Z,999.20
2018-12-27T10:33:36.004Z,999.22
2018-12-27T10:34:35.950Z,999.20
2018-12-27T10:35:41.136Z,999.19
2018-12-27T10:36:36.924Z,999.20
2018-12-27T10:37:35.913Z,999.20
2018-12-27T10:38:35.925Z,999.16
2018-12-27T10:39:35.920Z,999.17
2018-12-27T10:40:35.880Z,999.10
2018-12-27T10:41:35.879Z,999.11
2018-12-27T10:42:35.868Z,999.08
2018-12-27T10:43:35.873Z,999.09
2018-12-27T10:44:35.841Z,999.07
2018-12-27T10:45:35.831Z,998.99
2018-12-27T10:46:35.815Z,999.05
2018-12-27T10:47:35.802Z,998.95
2018-12-27T10:48:35.815Z,998.99
2018-12-27T10:49:35.783Z,998.92
2018-12-27T10:50:35.777Z,998.94
2018-12-27T10:51:35.789Z,998.89
2018-12-27T10:52:35.747Z,998.89
2018-12-27T10:53:35.760Z,998.90
2018-12-27T10:54:35.723Z,998.84
2018-12-27T10:55:35.713Z,998.83
2018-12-27T10:56:35.702Z,998.89
2018-12-27T10:57:35.700Z,998.87
2018-12-27T10:58:35.713Z,998.83
2018-12-27T10:59:35.668Z,998.81
2018-12-27T11:00:35.657Z,998.82
2018-12-27T11:01:35.645Z,998.79
2018-12-27T11:02:35.646Z,998.77
2018-12-27T11:03:35.630Z,998.77
2018-12-27T11:04:35.637Z,998.73
2018-12-27T11:05:35.605Z,998.65
2018-12-27T11:06:35.590Z,998.58
2018-12-27T11:07:35.580Z,998.60
2018-12-27T11:08:35.570Z,998.57
2018-12-27T11:09:35.588Z,998.59
2018-12-27T11:10:35.545Z,998.61
2018-12-27T11:11:35.533Z,998.64
2018-12-27T11:12:35.524Z,998.60
2018-12-27T11:13:35.510Z,998.61
2018-12-27T11:14:35.527Z,998.57
2018-12-27T11:15:35.513Z,998.60
2018-12-27T11:16:35.476Z,998.58
2018-12-27T11:17:35.465Z,998.56
2018-12-27T11:18:35.456Z,998.57
2018-12-27T11:19:35.469Z,998.53
2018-12-27T11:20:35.432Z,998.47
2018-12-27T11:21:35.449Z,998.46
2018-12-27T11:22:35.410Z,998.44
2018-12-27T11:23:35.397Z,998.42
2018-12-27T11:24:35.420Z,998.46
2018-12-27T11:25:35.377Z,998.42
2018-12-27T11:26:35.368Z,998.38
2018-12-27T11:27:35.359Z,998.26
2018-12-27T11:28:35.340Z,998.31
2018-12-27T11:29:35.352Z,998.28
2018-12-27T11:30:35.319Z,998.31
2018-12-27T11:31:35.313Z,998.22
2018-12-27T11:32:35.297Z,998.22
2018-12-27T11:33:35.285Z,998.17
2018-12-27T11:34:35.316Z,998.16
2018-12-27T11:35:35.263Z,998.17
2018-12-27T11:36:35.252Z,998.16
2018-12-27T11:37:35.240Z,998.18
2018-12-27T11:38:35.241Z,998.13
2018-12-27T11:39:35.243Z,998.10
2018-12-27T11:40:35.241Z,998.06
2018-12-27T11:41:35.198Z,998.07
2018-12-27T11:42:35.185Z,998.13
2018-12-27T11:43:35.178Z,998.11
2018-12-27T11:44:35.192Z,998.09
2018-12-27T11:45:35.150Z,998.06
2018-12-27T11:46:35.160Z,998.10
2018-12-27T11:47:35.127Z,998.03
2018-12-27T11:48:35.117Z,998.05
2018-12-27T11:49:35.156Z,997.99
2018-12-27T11:50:35.094Z,998.01
2018-12-27T11:51:35.085Z,998.07
2018-12-27T11:52:35.114Z,998.10
2018-12-27T11:53:35.060Z,998.08
2018-12-27T11:54:35.049Z,998.12
2018-12-27T11:55:35.070Z,998.08
2018-12-27T11:56:35.026Z,998.11
2018-12-27T11:57:35.015Z,998.08
2018-12-27T11:58:35.019Z,998.11
2018-12-27T11:59:34.993Z,998.05
2018-12-27T12:00:35.005Z,998.03
2018-12-27T12:01:34.972Z,998.07
2018-12-27T12:02:34.973Z,998.05
2018-12-27T12:03:34.948Z,998.09
2018-12-27T12:04:34.949Z,998.07
2018-12-27T12:05:34.950Z,998.07
2018-12-27T12:06:34.922Z,998.06
2018-12-27T12:07:34.904Z,998.06
2018-12-27T12:08:34.896Z,998.08
2018-12-27T12:09:34.882Z,998.07
2018-12-27T12:10:34.920Z,998.07
2018-12-27T12:11:34.858Z,998.08
2018-12-27T12:12:34.847Z,997.96
2018-12-27T12:13:34.838Z,997.97